Time;durP1;ratioP1;P1;durP2;ratioP2;P2;SDS_P1;SDS_P2;PMS_P1;PMS_P2;Temp;Humidity;BMP_temperature;BMP_pressure;BME280_temperature;BME280_humidity;BME280_pressure;Samples;Min_cycle;Max_cycle;Signal;HPM_P1;HPM_P2
2022/03/01 00:02:17;;;;;;;11.50;5.45;;;-4.10;93.80;;;;;;5069351;28;20515;-79
2022/03/01 00:04:43;;;;;;;11.48;5.40;;;-4.10;93.30;;;;;;5074203;28;20024;-79
2022/03/01 00:07:08;;;;;;;15.15;5.47;;;-4.30;93.10;;;;;;5059961;28;20099;-79
2022/03/01 00:09:35;;;;;;;12.38;5.45;;;-4.30;93.40;;;;;;5056770;28;20032;-79
2022/03/01 00:12:01;;;;;;;10.35;4.95;;;-4.40;94.00;;;;;;5046269;28;20152;-79
2022/03/01 00:14:27;;;;;;;12.35;5.63;;;-4.50;94.10;;;;;;5067939;28;20485;-79
2022/03/01 00:16:54;;;;;;;12.68;5.55;;;-4.60;94.60;;;;;;5058119;28;20033;-79
2022/03/01 00:19:20;;;;;;;9.70;5.32;;;-4.70;95.40;;;;;;5056984;28;20040;-79
2022/03/01 00:21:46;;;;;;;13.40;5.00;;;-4.70;96.30;;;;;;5040000;28;20033;-79
2022/03/01 00:24:12;;;;;;;12.45;5.13;;;-4.60;96.20;;;;;;5056532;28;20067;-78
2022/03/01 00:26:37;;;;;;;10.27;5.05;;;-4.70;95.60;;;;;;5057325;28;20025;-79
2022/03/01 00:29:03;;;;;;;10.32;4.90;;;-4.70;96.20;;;;;;5054642;28;20033;-79
2022/03/01 00:31:29;;;;;;;12.88;5.40;;;-4.60;96.50;;;;;;5059423;28;20139;-79
2022/03/01 00:33:54;;;;;;;11.15;5.18;;;-4.50;96.60;;;;;;5070040;28;20027;-79
2022/03/01 00:36:20;;;;;;;10.90;5.00;;;-4.50;96.10;;;;;;5049230;28;20381;-79
2022/03/01 00:38:45;;;;;;;12.05;5.22;;;-4.50;95.80;;;;;;5053687;28;20119;-79
2022/03/01 00:41:11;;;;;;;12.77;5.20;;;-4.50;95.70;;;;;;5038808;28;20024;-79
2022/03/01 00:43:37;;;;;;;9.95;4.88;;;-4.70;95.40;;;;;;5054429;28;20028;-79
2022/03/01 00:46:03;;;;;;;12.60;5.10;;;-4.70;95.10;;;;;;5056998;28;20060;-79
2022/03/01 00:48:28;;;;;;;11.82;5.13;;;-4.80;95.80;;;;;;5069921;28;20037;-79
2022/03/01 00:50:54;;;;;;;12.60;6.00;;;-4.90;96.40;;;;;;5054581;28;20029;-79
2022/03/01 00:53:20;;;;;;;11.88;4.53;;;-4.90;96.70;;;;;;5044993;28;20156;-79
2022/03/01 00:55:46;;;;;;;13.20;5.05;;;-4.80;96.70;;;;;;5058228;28;20056;-79
2022/03/01 00:58:11;;;;;;;10.07;4.57;;;-4.80;96.00;;;;;;5036149;28;20492;-79
2022/03/01 01:00:37;;;;;;;12.30;5.30;;;-4.90;95.40;;;;;;5056426;28;20020;-79
2022/03/01 01:03:03;;;;;;;11.75;4.65;;;-4.90;95.60;;;;;;5055921;28;20070;-78
2022/03/01 01:05:29;;;;;;;11.90;4.90;;;-4.90;95.80;;;;;;5055893;28;20027;-78
2022/03/01 01:07:55;;;;;;;10.18;5.05;;;-5.00;96.30;;;;;;5063445;28;20025;-78
2022/03/01 01:10:21;;;;;;;13.55;5.00;;;-5.10;97.50;;;;;;5038525;28;20041;-78
2022/03/01 01:12:47;;;;;;;14.75;5.20;;;-5.20;96.70;;;;;;5065796;28;20035;-79
2022/03/01 01:15:15;;;;;;;10.18;4.72;;;-5.30;97.80;;;;;;5050680;28;20518;-79
2022/03/01 01:17:41;;;;;;;11.40;5.28;;;-5.40;97.00;;;;;;5067962;28;20025;-79
2022/03/01 01:20:08;;;;;;;13.77;4.95;;;-5.50;97.60;;;;;;5062400;28;20028;-79
2022/03/01 01:22:39;;;;;;;12.52;5.65;;;-5.50;97.80;;;;;;5059488;28;20075;-79
2022/03/01 01:25:10;;;;;;;13.02;5.45;;;-5.50;98.20;;;;;;5029514;28;20530;-79
2022/03/01 01:27:38;;;;;;;13.38;5.13;;;-5.60;98.30;;;;;;5036143;28;20060;-79
2022/03/01 01:30:15;;;;;;;10.80;5.18;;;-5.60;98.90;;;;;;5040827;28;20558;-79
2022/03/01 01:32:42;;;;;;;10.60;4.70;;;-5.60;99.90;;;;;;5040912;28;20028;-79
2022/03/01 01:35:09;;;;;;;10.77;5.25;;;-5.60;99.90;;;;;;5056270;28;20025;-79
2022/03/01 01:37:35;;;;;;;13.15;5.05;;;-5.50;99.90;;;;;;5037894;28;20020;-79
2022/03/01 01:40:02;;;;;;;10.32;4.35;;;-5.50;99.50;;;;;;5055435;28;20565;-79
2022/03/01 01:42:28;;;;;;;10.23;4.75;;;-5.40;99.30;;;;;;5055663;28;20040;-79
2022/03/01 01:44:53;;;;;;;11.65;5.68;;;-5.30;98.80;;;;;;5056864;28;20017;-79
2022/03/01 01:47:19;;;;;;;10.73;4.90;;;-5.40;97.80;;;;;;5057555;28;20301;-79
2022/03/01 01:49:45;;;;;;;11.35;5.15;;;-5.50;98.10;;;;;;5056813;28;20029;-79
2022/03/01 01:52:10;;;;;;;9.88;5.03;;;-5.40;98.50;;;;;;5064733;28;20396;-79
2022/03/01 01:54:37;;;;;;;11.25;5.35;;;-5.40;98.50;;;;;;5037665;28;20142;-79
2022/03/01 01:57:16;;;;;;;9.77;4.68;;;-5.40;97.70;;;;;;5056623;28;20075;-79
2022/03/01 01:59:42;;;;;;;11.95;4.63;;;-5.50;97.10;;;;;;5037460;28;20056;-79
2022/03/01 02:02:13;;;;;;;11.63;4.78;;;-5.50;97.00;;;;;;5057930;28;20035;-79
2022/03/01 02:04:40;;;;;;;11.02;4.93;;;-5.60;97.40;;;;;;5053760;28;20028;-79
2022/03/01 02:07:06;;;;;;;10.73;4.75;;;-5.60;98.00;;;;;;5046272;28;20101;-79
2022/03/01 02:09:32;;;;;;;11.63;5.68;;;-5.60;97.90;;;;;;5047033;28;20144;-79
2022/03/01 02:11:58;;;;;;;13.80;4.95;;;-5.60;97.80;;;;;;5036463;28;20029;-79
2022/03/01 02:14:23;;;;;;;11.10;5.18;;;-5.70;97.90;;;;;;5055655;28;20382;-79
2022/03/01 02:16:49;;;;;;;10.88;4.97;;;-5.80;99.20;;;;;;5055153;28;20484;-79
2022/03/01 02:19:15;;;;;;;12.15;5.18;;;-5.90;99.40;;;;;;5054102;28;20033;-79
2022/03/01 02:22:07;;;;;;;12.20;5.05;;;-5.80;99.40;;;;;;5053966;28;20052;-79
2022/03/01 02:24:34;;;;;;;13.45;4.80;;;-5.80;99.30;;;;;;5064242;28;20033;-79
2022/03/01 02:27:01;;;;;;;12.55;4.72;;;-5.80;99.30;;;;;;5053684;28;20021;-79
2022/03/01 02:29:28;;;;;;;16.92;5.63;;;-5.80;99.20;;;;;;5055143;28;20060;-79
2022/03/01 02:31:55;;;;;;;12.68;5.28;;;-5.90;99.90;;;;;;5033504;28;20123;-79
2022/03/01 02:34:21;;;;;;;8.93;4.63;;;-5.90;99.90;;;;;;5058833;28;20021;-79
2022/03/01 02:36:47;;;;;;;12.80;5.03;;;-5.90;99.90;;;;;;5063939;28;20103;-79
2022/03/01 02:39:14;;;;;;;8.90;4.38;;;-5.90;99.70;;;;;;5066071;28;20106;-79
2022/03/01 02:41:42;;;;;;;8.43;4.80;;;-5.90;99.50;;;;;;5043464;28;20033;-79
2022/03/01 02:44:08;;;;;;;11.57;4.95;;;-5.90;99.30;;;;;;5055884;28;20027;-79
2022/03/01 02:46:34;;;;;;;11.15;5.03;;;-5.90;98.70;;;;;;5037358;28;20376;-79
2022/03/01 02:49:00;;;;;;;11.05;4.70;;;-6.10;98.10;;;;;;5055486;28;20025;-79
2022/03/01 02:51:26;;;;;;;9.65;4.13;;;-6.10;98.20;;;;;;5037889;28;20384;-79
2022/03/01 02:53:52;;;;;;;11.25;4.72;;;-6.10;98.50;;;;;;5042986;28;20021;-79
2022/03/01 02:56:17;;;;;;;8.25;4.05;;;-6.10;98.70;;;;;;5056543;28;20036;-79
2022/03/01 02:58:43;;;;;;;11.98;6.03;;;-6.20;98.80;;;;;;5042029;28;20029;-79
2022/03/01 03:01:09;;;;;;;15.30;6.38;;;-6.20;99.00;;;;;;5057484;28;20108;-79
2022/03/01 03:03:34;;;;;;;11.00;5.50;;;-6.30;99.20;;;;;;5070156;28;20025;-79
2022/03/01 03:06:00;;;;;;;11.30;5.10;;;-6.40;99.70;;;;;;5063046;28;20036;-79
2022/03/01 03:08:26;;;;;;;13.13;5.65;;;-6.50;99.90;;;;;;5057406;28;20447;-79
2022/03/01 03:10:52;;;;;;;13.13;5.47;;;-6.50;99.90;;;;;;5035170;28;20037;-79
2022/03/01 03:13:18;;;;;;;11.25;4.95;;;-6.60;99.90;;;;;;5059511;28;20037;-79
2022/03/01 03:15:45;;;;;;;15.32;5.70;;;-6.60;99.90;;;;;;5054096;28;20036;-79
2022/03/01 03:18:11;;;;;;;14.73;6.32;;;-6.50;99.90;;;;;;5071460;28;20024;-79
2022/03/01 03:20:37;;;;;;;11.63;4.75;;;-6.40;99.90;;;;;;5057747;28;20481;-79
2022/03/01 03:23:02;;;;;;;8.73;4.00;;;-6.30;99.90;;;;;;5065042;28;20016;-79
2022/03/01 03:25:28;;;;;;;11.70;5.28;;;-6.40;99.50;;;;;;5075641;22;20021;-78
2022/03/01 03:27:53;;;;;;;11.15;4.47;;;-6.50;99.90;;;;;;5096773;28;20042;-78
2022/03/01 03:30:19;;;;;;;9.52;4.65;;;-6.50;99.90;;;;;;5096961;28;20051;-78
2022/03/01 03:32:45;;;;;;;11.43;4.47;;;-6.50;99.90;;;;;;5079191;28;20073;-78
2022/03/01 03:35:11;;;;;;;12.20;5.30;;;-6.50;99.90;;;;;;5080021;28;20373;-78
2022/03/01 03:37:37;;;;;;;12.50;5.47;;;-6.60;99.70;;;;;;5097231;28;20487;-78
2022/03/01 03:40:03;;;;;;;14.13;6.72;;;-6.70;99.90;;;;;;5078249;28;20028;-78
2022/03/01 03:42:29;;;;;;;14.77;6.57;;;-6.80;99.90;;;;;;5097063;28;20031;-78
2022/03/01 03:44:55;;;;;;;12.20;5.93;;;-6.80;99.90;;;;;;5096672;28;20091;-78
2022/03/01 03:47:21;;;;;;;14.10;6.55;;;-6.80;99.90;;;;;;5096630;28;20105;-78
2022/03/01 03:49:47;;;;;;;14.02;5.60;;;-6.80;99.90;;;;;;5096510;28;20475;-78
2022/03/01 03:52:13;;;;;;;12.82;5.47;;;-6.70;99.90;;;;;;5096741;28;20024;-78
2022/03/01 03:54:38;;;;;;;12.15;4.60;;;-6.70;99.90;;;;;;5096606;28;20024;-78
2022/03/01 03:57:08;;;;;;;13.50;5.80;;;-6.70;99.90;;;;;;5096376;28;20024;-78
2022/03/01 03:59:34;;;;;;;11.13;5.00;;;-6.60;99.90;;;;;;5096364;28;20016;-78
2022/03/01 04:02:04;;;;;;;11.32;4.50;;;-6.60;99.90;;;;;;5095950;28;20029;-78
2022/03/01 04:04:30;;;;;;;12.87;5.27;;;-6.60;99.90;;;;;;5096236;28;20027;-78
2022/03/01 04:06:56;;;;;;;10.00;4.90;;;-6.60;99.90;;;;;;5096079;28;20106;-78
2022/03/01 04:09:21;;;;;;;10.57;4.32;;;-6.60;99.90;;;;;;5096011;28;20035;-78
2022/03/01 04:11:47;;;;;;;10.02;4.50;;;-6.60;99.90;;;;;;5096374;28;20442;-78
2022/03/01 04:14:13;;;;;;;8.75;3.95;;;-6.60;99.90;;;;;;5095964;28;20040;-78
2022/03/01 04:16:42;;;;;;;10.23;4.35;;;-6.60;99.90;;;;;;5096411;28;20145;-78
2022/03/01 04:19:08;;;;;;;11.52;4.95;;;-6.50;99.90;;;;;;5077592;28;20052;-78
2022/03/01 04:21:34;;;;;;;10.23;4.80;;;-6.60;99.90;;;;;;5095944;28;20027;-78
2022/03/01 04:24:00;;;;;;;9.82;4.95;;;-6.60;99.90;;;;;;5077598;28;20020;-78
2022/03/01 04:26:26;;;;;;;13.10;5.30;;;-6.60;99.90;;;;;;5095521;28;20081;-78
2022/03/01 04:28:51;;;;;;;14.77;5.88;;;-6.60;99.90;;;;;;5076368;28;20039;-79
2022/03/01 04:31:17;;;;;;;14.23;5.18;;;-6.50;99.90;;;;;;5077922;28;20027;-79
2022/03/01 04:33:43;;;;;;;9.48;4.78;;;-6.50;99.90;;;;;;5096262;28;20052;-79
2022/03/01 04:36:08;;;;;;;14.13;5.38;;;-6.50;99.90;;;;;;5078083;28;20387;-79
2022/03/01 04:38:35;;;;;;;12.30;5.35;;;-6.50;99.70;;;;;;5095614;28;20071;-79
2022/03/01 04:41:00;;;;;;;10.05;4.60;;;-6.60;99.30;;;;;;5095982;28;20088;-79
2022/03/01 04:43:26;;;;;;;13.25;5.00;;;-6.70;98.80;;;;;;5077951;28;20407;-79
2022/03/01 04:45:52;;;;;;;9.23;4.25;;;-6.80;98.90;;;;;;5096308;28;20040;-79
2022/03/01 04:48:19;;;;;;;8.60;4.20;;;-6.80;98.90;;;;;;5093130;28;20032;-78
2022/03/01 04:50:44;;;;;;;9.30;3.88;;;-6.80;99.00;;;;;;5095435;28;20438;-78
2022/03/01 04:53:11;;;;;;;12.07;4.53;;;-6.90;99.10;;;;;;5077380;28;20024;-78
2022/03/01 04:55:37;;;;;;;8.55;4.57;;;-6.80;99.40;;;;;;5095349;28;20059;-78
2022/03/01 04:58:03;;;;;;;11.48;4.43;;;-6.90;99.60;;;;;;5094915;28;20024;-78
2022/03/01 05:00:28;;;;;;;9.38;4.50;;;-6.90;99.70;;;;;;5097257;28;20467;-78
2022/03/01 05:02:54;;;;;;;11.55;5.00;;;-6.80;99.70;;;;;;5097285;28;20027;-78
2022/03/01 05:05:20;;;;;;;11.95;5.07;;;-6.80;99.70;;;;;;5096683;28;20020;-78
2022/03/01 05:07:48;;;;;;;10.82;5.57;;;-6.90;99.90;;;;;;5078578;28;20494;-78
2022/03/01 05:10:18;;;;;;;14.45;6.82;;;-6.90;99.10;;;;;;5096530;28;20034;-78
2022/03/01 05:12:52;;;;;;;11.52;4.82;;;-7.10;97.30;;;;;;5096901;28;20024;-78
2022/03/01 05:15:20;;;;;;;13.60;5.40;;;-7.20;98.20;;;;;;5078364;28;20174;-78
2022/03/01 05:17:46;;;;;;;16.35;6.00;;;-7.30;98.90;;;;;;5071945;28;20020;-80
2022/03/01 05:20:14;;;;;;;110.47;32.67;;;-7.40;99.10;;;;;;5094974;28;20392;-81
2022/03/01 05:22:41;;;;;;;132.38;41.83;;;-7.40;99.90;;;;;;5074109;28;20373;-80
2022/03/01 05:25:11;;;;;;;62.53;23.05;;;-7.40;99.90;;;;;;5093946;28;20078;-81
2022/03/01 05:27:38;;;;;;;;;;;-7.40;99.70;;;;;;5094924;28;20085;-81
2022/03/01 05:30:05;;;;;;;29.00;10.65;;;-7.50;99.90;;;;;;5093857;28;19908;-81
2022/03/01 05:32:34;;;;;;;27.67;11.50;;;-7.50;99.90;;;;;;5094291;28;20020;-81
2022/03/01 05:35:00;;;;;;;23.40;11.05;;;-7.50;99.90;;;;;;5094367;28;20020;-81
2022/03/01 05:37:25;;;;;;;22.92;10.25;;;-7.50;99.90;;;;;;5075911;28;20483;-81
2022/03/01 05:39:51;;;;;;;18.90;8.15;;;-7.50;99.90;;;;;;5093633;28;20388;-81
2022/03/01 05:42:18;;;;;;;12.57;5.63;;;-7.50;99.90;;;;;;5075591;28;20564;-81
2022/03/01 05:44:44;;;;;;;12.45;5.85;;;-7.50;99.90;;;;;;5094178;28;20020;-80
2022/03/01 05:47:09;;;;;;;13.45;6.00;;;-7.50;99.90;;;;;;5094228;28;20497;-81
2022/03/01 05:49:35;;;;;;;13.30;6.18;;;-7.60;99.90;;;;;;5094185;28;20035;-81
2022/03/01 05:52:01;;;;;;;15.68;7.03;;;-7.60;99.90;;;;;;5094358;28;20020;-81
2022/03/01 05:54:27;;;;;;;11.20;5.32;;;-7.50;99.90;;;;;;5093864;28;20031;-80
2022/03/01 05:56:52;;;;;;;18.48;7.95;;;-7.50;99.90;;;;;;5076106;28;20078;-80
2022/03/01 05:59:18;;;;;;;24.25;6.95;;;-7.50;99.90;;;;;;5075464;28;20032;-80
2022/03/01 06:01:43;;;;;;;27.35;7.60;;;-7.50;99.90;;;;;;5094388;28;20074;-80
2022/03/01 06:04:09;;;;;;;26.63;8.68;;;-7.60;99.90;;;;;;5075982;28;20111;-80
2022/03/01 06:06:35;;;;;;;19.98;7.57;;;-7.70;99.90;;;;;;5093778;28;20475;-80
2022/03/01 06:09:01;;;;;;;15.90;6.22;;;-7.70;99.90;;;;;;5093763;28;20028;-80
2022/03/01 06:11:26;;;;;;;15.60;6.13;;;-7.70;99.90;;;;;;5093617;28;20086;-80
2022/03/01 06:13:52;;;;;;;13.10;5.03;;;-7.70;99.90;;;;;;5093968;28;20051;-80
2022/03/01 06:16:18;;;;;;;13.38;5.57;;;-7.70;99.90;;;;;;5094107;28;20066;-80
2022/03/01 06:18:44;;;;;;;12.18;5.18;;;-7.70;99.90;;;;;;5093686;28;20111;-80
2022/03/01 06:21:10;;;;;;;13.63;5.30;;;-7.60;99.90;;;;;;5093308;28;20031;-80
2022/03/01 06:23:35;;;;;;;13.82;5.47;;;-7.60;99.90;;;;;;5093731;28;20020;-80
2022/03/01 06:26:01;;;;;;;13.02;5.47;;;-7.60;99.90;;;;;;5093668;28;20391;-80
2022/03/01 06:28:27;;;;;;;15.30;4.97;;;-7.50;99.90;;;;;;5095111;28;20116;-80
2022/03/01 06:30:53;;;;;;;12.27;4.85;;;-7.50;99.90;;;;;;5093816;28;20060;-81
2022/03/01 06:33:19;;;;;;;16.63;5.35;;;-7.50;99.90;;;;;;5093739;28;20027;-80
2022/03/01 06:35:45;;;;;;;12.45;4.95;;;-7.50;99.90;;;;;;5093322;28;20459;-81
2022/03/01 06:38:11;;;;;;;12.50;4.95;;;-7.60;99.90;;;;;;5093292;28;20028;-80
2022/03/01 06:40:37;;;;;;;13.27;5.65;;;-7.50;99.90;;;;;;5093652;28;20069;-81
2022/03/01 06:43:03;;;;;;;14.00;6.03;;;-7.50;99.90;;;;;;5093548;28;20028;-80
2022/03/01 06:45:29;;;;;;;17.10;6.20;;;-7.50;99.90;;;;;;5093358;28;20032;-80
2022/03/01 06:47:55;;;;;;;14.82;6.53;;;-7.50;99.90;;;;;;5094122;28;20044;-81
2022/03/01 06:50:21;;;;;;;15.70;6.07;;;-7.50;99.90;;;;;;5075351;28;20499;-81
2022/03/01 06:52:47;;;;;;;13.82;6.13;;;-7.50;99.90;;;;;;5096098;28;20024;-81
2022/03/01 06:55:13;;;;;;;19.58;6.28;;;-7.50;99.90;;;;;;5101251;28;20052;-81
2022/03/01 06:57:40;;;;;;;16.35;6.85;;;-7.40;99.90;;;;;;5104119;28;20028;-80
2022/03/01 07:00:08;;;;;;;15.32;6.45;;;-7.40;99.90;;;;;;5104537;28;20039;-80
2022/03/01 07:02:38;;;;;;;17.20;7.60;;;-7.40;99.90;;;;;;5105482;28;20040;-81
2022/03/01 07:05:14;;;;;;;13.83;6.17;;;-7.40;99.90;;;;;;5105904;28;20024;-81
2022/03/01 07:07:40;;;;;;;13.50;5.55;;;-7.30;99.90;;;;;;5105424;28;20360;-81
2022/03/01 07:10:08;;;;;;;14.27;5.90;;;-7.30;99.90;;;;;;5105660;28;20058;-81
2022/03/01 07:12:34;;;;;;;25.52;9.93;;;-7.30;99.90;;;;;;5087705;28;20111;-80
2022/03/01 07:15:00;;;;;;;14.93;5.90;;;-7.10;99.90;;;;;;5105560;28;20051;-81
2022/03/01 07:17:26;;;;;;;13.65;6.18;;;-7.10;99.90;;;;;;5100359;28;20024;-81
2022/03/01 07:19:52;;;;;;;19.20;6.43;;;-7.10;99.90;;;;;;5101510;28;20036;-81
2022/03/01 07:22:18;;;;;;;13.95;6.20;;;-7.00;99.90;;;;;;5084280;28;20035;-81
2022/03/01 07:24:44;;;;;;;14.70;6.13;;;-7.00;99.90;;;;;;5084071;28;20027;-81
2022/03/01 07:27:10;;;;;;;16.85;8.00;;;-6.90;99.90;;;;;;5101905;28;20379;-81
2022/03/01 07:29:37;;;;;;;21.75;8.38;;;-6.90;99.90;;;;;;5084142;28;20455;-80
2022/03/01 07:32:05;;;;;;;20.48;9.60;;;-6.80;99.90;;;;;;5082171;28;20111;-81
2022/03/01 07:34:31;;;;;;;23.63;9.73;;;-6.70;99.90;;;;;;5100070;28;20514;-80
2022/03/01 07:36:57;;;;;;;30.33;10.57;;;-6.60;99.90;;;;;;5081288;28;20028;-81
2022/03/01 07:39:23;;;;;;;29.55;11.07;;;-6.60;99.90;;;;;;5099223;28;20089;-81
2022/03/01 07:41:49;;;;;;;29.15;9.95;;;-6.50;99.90;;;;;;5107290;28;20028;-81
2022/03/01 07:44:15;;;;;;;22.25;8.95;;;-6.50;99.90;;;;;;5103062;28;20020;-81
2022/03/01 07:46:41;;;;;;;26.55;9.68;;;-6.40;99.90;;;;;;5102474;28;20027;-81
2022/03/01 07:49:07;;;;;;;29.70;10.75;;;-6.40;99.90;;;;;;5097201;28;20023;-81
2022/03/01 07:51:33;;;;;;;26.55;9.82;;;-6.30;99.90;;;;;;5096686;28;20024;-80
2022/03/01 07:53:58;;;;;;;21.17;8.18;;;-6.20;99.90;;;;;;5096685;28;20442;-80
2022/03/01 07:56:25;;;;;;;20.80;8.60;;;-6.20;99.90;;;;;;5096736;28;20026;-80
2022/03/01 07:58:51;;;;;;;22.15;8.00;;;-6.10;99.90;;;;;;5096539;28;20024;-80
2022/03/01 08:01:17;;;;;;;16.60;7.88;;;-6.00;99.90;;;;;;5105461;22;20066;-80
2022/03/01 08:03:43;;;;;;;19.33;7.65;;;-5.90;99.90;;;;;;5057726;28;20384;-80
2022/03/01 08:06:09;;;;;;;20.80;8.05;;;-5.90;99.90;;;;;;5059286;28;20021;-81
2022/03/01 08:08:35;;;;;;;17.40;7.97;;;-5.80;99.90;;;;;;5058948;28;20036;-80
2022/03/01 08:11:01;;;;;;;20.75;8.00;;;-5.70;99.90;;;;;;5039367;28;20036;-80
2022/03/01 08:13:27;;;;;;;19.40;8.38;;;-5.60;99.90;;;;;;5058336;28;20412;-82
2022/03/01 08:15:53;;;;;;;18.52;7.20;;;-5.40;99.90;;;;;;5059111;28;20029;-79
2022/03/01 08:18:18;;;;;;;20.00;8.35;;;-5.30;99.90;;;;;;5056580;28;20110;-78
2022/03/01 08:20:44;;;;;;;25.35;9.15;;;-5.20;99.90;;;;;;5057185;28;20067;-78
2022/03/01 08:23:10;;;;;;;26.27;9.02;;;-5.00;99.90;;;;;;5057753;28;20353;-78
2022/03/01 08:25:36;;;;;;;22.33;9.00;;;-4.90;99.70;;;;;;5056810;28;20082;-78
2022/03/01 08:28:02;;;;;;;23.67;8.73;;;-4.90;99.40;;;;;;5057894;28;20059;-78
2022/03/01 08:30:29;;;;;;;18.65;8.27;;;-4.90;99.30;;;;;;5055586;28;20021;-78
2022/03/01 08:32:55;;;;;;;24.13;8.75;;;-4.80;99.40;;;;;;5068895;28;20013;-78
2022/03/01 08:35:22;;;;;;;16.88;7.75;;;-4.70;99.10;;;;;;5076751;28;20020;-79
2022/03/01 08:37:48;;;;;;;24.52;8.52;;;-4.70;98.30;;;;;;5077001;28;20032;-78
2022/03/01 08:40:14;;;;;;;19.42;8.38;;;-4.60;98.10;;;;;;5058975;28;20035;-78
2022/03/01 08:42:42;;;;;;;17.75;8.52;;;-4.40;98.00;;;;;;5077189;28;20021;-78
2022/03/01 08:45:09;;;;;;;21.73;9.82;;;-4.30;97.00;;;;;;5077196;28;20164;-78
2022/03/01 08:47:34;;;;;;;19.55;8.73;;;-4.10;96.30;;;;;;5076828;28;20016;-79
2022/03/01 08:50:00;;;;;;;20.60;9.30;;;-4.00;96.40;;;;;;5076843;28;20035;-79
2022/03/01 08:52:26;;;;;;;21.88;9.45;;;-3.80;96.30;;;;;;5076975;28;20020;-78
2022/03/01 08:54:52;;;;;;;22.77;9.50;;;-3.70;95.70;;;;;;5077062;28;20021;-79
2022/03/01 08:57:18;;;;;;;37.10;10.55;;;-3.70;95.80;;;;;;5058780;28;20074;-79
2022/03/01 08:59:44;;;;;;;19.98;9.00;;;-3.60;95.90;;;;;;5077033;28;20043;-79
2022/03/01 09:02:09;;;;;;;23.17;9.90;;;-3.50;95.80;;;;;;5058252;28;20395;-79
2022/03/01 09:04:35;;;;;;;30.60;11.48;;;-3.40;96.10;;;;;;5076246;28;20032;-79
2022/03/01 09:07:03;;;;;;;26.67;12.00;;;-3.30;96.00;;;;;;5076220;28;20071;-79
2022/03/01 09:09:31;;;;;;;27.23;11.38;;;-3.20;96.00;;;;;;5077006;28;20492;-79
2022/03/01 09:11:56;;;;;;;22.00;9.55;;;-3.00;95.30;;;;;;5076505;28;20028;-78
2022/03/01 09:14:22;;;;;;;16.73;7.85;;;-2.90;94.50;;;;;;5076453;28;20499;-79
2022/03/01 09:16:48;;;;;;;11.23;6.00;;;-2.70;92.50;;;;;;5075613;28;20028;-78
2022/03/01 09:19:14;;;;;;;20.85;8.10;;;-2.60;90.10;;;;;;5075179;28;20432;-78
2022/03/01 09:21:40;;;;;;;15.45;8.10;;;-2.60;90.90;;;;;;5075403;28;20016;-78
2022/03/01 09:24:06;;;;;;;24.70;10.23;;;-2.40;90.90;;;;;;5075694;28;20024;-78
2022/03/01 09:26:32;;;;;;;22.33;8.63;;;-2.30;91.50;;;;;;5075543;28;20032;-78
2022/03/01 09:28:57;;;;;;;17.73;8.88;;;-2.20;91.20;;;;;;5075294;28;20032;-78
2022/03/01 09:31:23;;;;;;;22.17;10.43;;;-2.10;90.10;;;;;;5075313;28;20097;-78
2022/03/01 09:33:48;;;;;;;26.67;10.73;;;-2.00;89.40;;;;;;5074994;28;20396;-78
2022/03/01 09:36:15;;;;;;;23.63;10.55;;;-1.90;88.60;;;;;;5075080;28;20043;-78
2022/03/01 09:38:42;;;;;;;18.27;9.63;;;-1.80;88.10;;;;;;5056771;28;20025;-78
2022/03/01 09:41:08;;;;;;;24.65;10.90;;;-1.70;86.30;;;;;;5075088;28;20380;-78
2022/03/01 09:43:38;;;;;;;22.50;9.98;;;-1.60;83.90;;;;;;5075415;28;20390;-78
2022/03/01 09:46:06;;;;;;;26.70;10.40;;;-1.60;85.20;;;;;;5074812;28;20383;-78
2022/03/01 09:48:31;;;;;;;17.67;8.85;;;-1.40;86.30;;;;;;5074371;28;20556;-78
2022/03/01 09:51:00;;;;;;;20.17;8.90;;;-1.30;85.00;;;;;;5075174;28;20032;-78
2022/03/01 09:53:26;;;;;;;19.50;8.50;;;-1.20;84.60;;;;;;5056660;28;20036;-78
2022/03/01 09:55:52;;;;;;;16.63;7.90;;;-1.10;83.60;;;;;;5074584;28;20029;-78
2022/03/01 09:58:18;;;;;;;15.00;7.38;;;-1.00;80.10;;;;;;5074391;28;20403;-78
2022/03/01 10:00:45;;;;;;;13.57;7.45;;;-0.90;77.10;;;;;;5074757;28;20020;-78
2022/03/01 10:03:15;;;;;;;14.20;6.75;;;-0.80;76.30;;;;;;5074302;28;20020;-78
2022/03/01 10:05:42;;;;;;;10.20;5.80;;;-0.70;77.10;;;;;;5074899;28;20024;-78
2022/03/01 10:08:24;;;;;;;13.38;6.10;;;-0.60;73.60;;;;;;5074932;28;20450;-78
2022/03/01 10:10:53;;;;;;;12.75;5.72;;;-0.50;73.20;;;;;;5074956;28;20017;-78
2022/03/01 10:13:33;;;;;;;11.77;5.30;;;-0.40;71.20;;;;;;5074798;28;20052;-79
2022/03/01 10:16:11;;;;;;;12.25;5.75;;;-0.30;71.80;;;;;;5074978;28;20029;-78
2022/03/01 10:18:52;;;;;;;12.93;5.90;;;-0.10;69.30;;;;;;5056352;28;20048;-79
2022/03/01 10:21:19;;;;;;;10.30;5.45;;;0.00;69.30;;;;;;5056511;28;20021;-79
2022/03/01 10:23:54;;;;;;;10.98;5.85;;;0.10;69.30;;;;;;5074400;28;20468;-79
2022/03/01 10:26:28;;;;;;;12.77;5.68;;;0.20;69.30;;;;;;5075515;28;20033;-78
2022/03/01 10:28:56;;;;;;;12.00;5.65;;;0.30;65.00;;;;;;5081295;28;20037;-79
2022/03/01 10:31:29;;;;;;;12.65;6.05;;;0.50;64.30;;;;;;5063333;28;20396;-79
2022/03/01 10:33:56;;;;;;;11.10;6.50;;;0.50;64.90;;;;;;5080990;28;20078;-79
2022/03/01 10:36:25;;;;;;;12.20;5.22;;;0.60;63.30;;;;;;5081313;28;20085;-79
2022/03/01 10:39:11;;;;;;;10.93;5.28;;;0.70;61.00;;;;;;5081413;28;20077;-79
2022/03/01 10:41:40;;;;;;;9.32;4.13;;;0.80;63.90;;;;;;5063283;28;20017;-78
2022/03/01 10:44:07;;;;;;;6.13;3.50;;;0.90;62.30;;;;;;5081167;28;20100;-79
2022/03/01 10:46:42;;;;;;;12.80;5.55;;;0.90;61.50;;;;;;5081494;28;20021;-79
2022/03/01 10:49:10;;;;;;;9.18;4.22;;;1.00;61.60;;;;;;5080910;28;20054;-79
2022/03/01 10:51:57;;;;;;;15.60;6.57;;;1.10;62.30;;;;;;5080896;28;20475;-79
2022/03/01 10:54:28;;;;;;;14.93;6.97;;;1.20;66.10;;;;;;5080374;28;20028;-79
2022/03/01 10:56:55;;;;;;;18.35;6.95;;;1.20;66.30;;;;;;5080682;28;20035;-78
2022/03/01 10:59:22;;;;;;;13.43;6.20;;;1.30;65.60;;;;;;5080902;28;20460;-79
2022/03/01 11:01:48;;;;;;;10.95;5.65;;;1.30;66.30;;;;;;5080425;28;20032;-79
2022/03/01 11:04:14;;;;;;;13.30;6.03;;;1.40;67.70;;;;;;5062309;28;20024;-79
2022/03/01 11:06:41;;;;;;;12.30;5.88;;;1.50;67.10;;;;;;5081037;28;20055;-79
2022/03/01 11:09:08;;;;;;;14.77;6.03;;;1.50;66.40;;;;;;5080864;28;20024;-79
2022/03/01 11:11:36;;;;;;;12.85;5.50;;;1.50;65.60;;;;;;5080543;28;20369;-79
2022/03/01 11:14:03;;;;;;;9.18;4.57;;;1.60;63.80;;;;;;5081115;28;20115;-80
2022/03/01 11:17:03;;;;;;;10.38;4.78;;;1.70;59.50;;;;;;5084775;28;20021;-79
2022/03/01 11:19:49;;;;;;;9.43;4.70;;;1.80;58.80;;;;;;5065527;28;20082;-79
2022/03/01 11:22:41;;;;;;;10.15;4.55;;;2.00;56.70;;;;;;5082277;28;20017;-79
2022/03/01 11:25:17;;;;;;;7.68;4.07;;;2.10;58.90;;;;;;5075343;28;20520;-78
2022/03/01 11:27:46;;;;;;;8.45;4.72;;;2.10;58.50;;;;;;5081139;28;20028;-78
2022/03/01 11:30:12;;;;;;;14.82;5.53;;;2.20;58.60;;;;;;5062339;28;20067;-78
2022/03/01 11:32:44;;;;;;;10.55;5.00;;;2.20;59.00;;;;;;5080047;28;20448;-78
2022/03/01 11:35:22;;;;;;;14.05;5.18;;;2.30;62.50;;;;;;5080090;28;20028;-78
2022/03/01 11:38:00;;;;;;;12.50;5.40;;;2.40;61.70;;;;;;5080488;28;20429;-78
2022/03/01 11:40:26;;;;;;;10.18;5.28;;;2.50;62.80;;;;;;5077700;28;20063;-78
2022/03/01 11:42:53;;;;;;;11.40;5.30;;;2.50;63.50;;;;;;5059394;28;20021;-78
2022/03/01 11:45:19;;;;;;;10.73;4.85;;;2.60;63.40;;;;;;5077187;28;20494;-78
2022/03/01 11:47:44;;;;;;;12.73;5.50;;;2.60;64.00;;;;;;5077602;28;20016;-78
2022/03/01 11:50:16;;;;;;;11.70;5.25;;;2.70;63.90;;;;;;5077688;28;20028;-78
2022/03/01 11:52:57;;;;;;;9.02;4.72;;;2.70;64.10;;;;;;5077781;28;20021;-78
2022/03/01 11:55:31;;;;;;;9.95;4.72;;;2.80;58.90;;;;;;5077313;28;20029;-78
2022/03/01 11:57:58;;;;;;;13.38;5.40;;;2.70;61.40;;;;;;5059547;28;20519;-78
2022/03/01 12:00:28;;;;;;;12.80;5.68;;;2.80;61.80;;;;;;5077764;28;20029;-78
2022/03/01 12:02:58;;;;;;;8.48;4.95;;;2.90;62.10;;;;;;5077343;28;20039;-78
2022/03/01 12:05:25;;;;;;;10.00;4.75;;;3.00;63.70;;;;;;5077595;28;20097;-78
2022/03/01 12:07:52;;;;;;;9.75;4.75;;;3.10;63.60;;;;;;5077667;28;20021;-78
2022/03/01 12:10:23;;;;;;;13.95;5.15;;;3.20;64.40;;;;;;5077085;28;20380;-77
2022/03/01 12:12:52;;;;;;;10.00;4.65;;;3.30;63.80;;;;;;5077146;28;20024;-78
2022/03/01 12:15:32;;;;;;;11.05;5.00;;;3.40;62.10;;;;;;5076821;28;20062;-78
2022/03/01 12:18:13;;;;;;;8.23;4.03;;;3.40;61.00;;;;;;5076991;28;20028;-77
2022/03/01 12:20:41;;;;;;;7.95;4.40;;;3.50;59.60;;;;;;5076980;28;20312;-78
2022/03/01 12:23:07;;;;;;;12.45;5.38;;;3.60;60.20;;;;;;5077650;28;20047;-78
2022/03/01 12:25:38;;;;;;;8.82;4.82;;;3.60;61.30;;;;;;5077895;28;20028;-77
2022/03/01 12:28:05;;;;;;;10.43;5.50;;;3.70;59.60;;;;;;5060473;28;20032;-78
2022/03/01 12:30:37;;;;;;;11.32;5.20;;;3.70;60.30;;;;;;5078873;28;20029;-77
2022/03/01 12:33:04;;;;;;;13.95;5.50;;;3.80;59.80;;;;;;5078929;28;20107;-77
2022/03/01 12:35:29;;;;;;;12.80;5.78;;;3.90;59.50;;;;;;5061394;28;20069;-78
2022/03/01 12:38:09;;;;;;;10.77;6.28;;;4.00;58.80;;;;;;5080139;28;20072;-78
2022/03/01 12:40:36;;;;;;;12.73;7.75;;;4.10;58.60;;;;;;5080980;28;20550;-78